createdAt,value
2019-04-07T00:02:04.814Z,57.83
2019-04-07T00:04:33.827Z,60.73
2019-04-07T00:07:03.559Z,60.20
2019-04-07T00:09:33.138Z,61.97
2019-04-07T00:12:02.172Z,61.57
2019-04-07T00:14:31.757Z,61.83
2019-04-07T00:17:00.805Z,64.17
2019-04-07T00:19:29.828Z,61.47
2019-04-07T00:21:59.331Z,65.23
2019-04-07T00:24:28.389Z,63.80
2019-04-07T00:26:57.842Z,61.27
2019-04-07T00:29:26.882Z,62.20
2019-04-07T00:31:56.136Z,66.03
2019-04-07T00:34:25.194Z,60.10
2019-04-07T00:36:54.210Z,64.83
2019-04-07T00:39:23.305Z,61.40
2019-04-07T00:41:52.202Z,59.10
2019-04-07T00:44:21.265Z,62.40
2019-04-07T00:46:50.960Z,60.97
2019-04-07T00:49:20.593Z,60.97
2019-04-07T00:51:51.370Z,61.00
2019-04-07T00:54:20.457Z,62.50
2019-04-07T00:56:50.153Z,62.10
2019-04-07T00:59:19.693Z,60.20
2019-04-07T01:01:48.781Z,62.30
2019-04-07T01:04:17.664Z,62.03
2019-04-07T01:06:47.208Z,60.60
2019-04-07T01:09:16.561Z,54.23
2019-04-07T01:11:46.228Z,58.67
2019-04-07T01:14:16.026Z,55.67
2019-04-07T01:16:45.621Z,56.63
2019-04-07T01:19:14.822Z,55.27
2019-04-07T01:21:43.874Z,56.53
2019-04-07T01:24:13.265Z,55.83
2019-04-07T01:26:42.312Z,54.97
2019-04-07T01:29:11.282Z,55.10
2019-04-07T01:31:40.455Z,56.70
2019-04-07T01:34:09.581Z,56.17
2019-04-07T01:36:39.120Z,55.50
2019-04-07T01:39:10.501Z,56.53
2019-04-07T01:41:54.838Z,54.53
2019-04-07T01:44:47.235Z,54.10
2019-04-07T01:47:21.586Z,53.80
2019-04-07T01:50:10.029Z,55.83
2019-04-07T01:52:53.619Z,56.53
2019-04-07T01:56:00.288Z,56.83
2019-04-07T01:58:41.607Z,57.30
2019-04-07T02:01:29.761Z,58.03
2019-04-07T02:04:35.999Z,59.97
2019-04-07T02:07:29.464Z,61.40
2019-04-07T02:10:16.317Z,62.83
2019-04-07T02:13:04.421Z,61.10
2019-04-07T02:15:46.208Z,62.67
2019-04-07T02:18:34.273Z,61.17
2019-04-07T02:21:09.686Z,61.90
2019-04-07T02:23:57.509Z,65.63
2019-04-07T02:26:52.281Z,65.37
2019-04-07T02:29:39.967Z,64.57
2019-04-07T02:32:27.906Z,68.27
2019-04-07T02:35:12.293Z,66.30
2019-04-07T02:38:00.864Z,65.27
2019-04-07T02:41:08.828Z,65.60
2019-04-07T02:44:02.657Z,64.33
2019-04-07T02:46:49.506Z,64.70
2019-04-07T02:49:41.272Z,66.57
2019-04-07T02:52:30.333Z,67.77
2019-04-07T02:55:35.485Z,65.07
2019-04-07T02:58:11.765Z,65.93
2019-04-07T03:00:55.507Z,65.20
2019-04-07T03:03:34.280Z,67.33
2019-04-07T03:06:43.987Z,63.47
2019-04-07T03:09:15.263Z,69.07
2019-04-07T03:11:54.694Z,69.67
2019-04-07T03:14:29.106Z,72.27
2019-04-07T03:17:06.687Z,70.27
2019-04-07T03:19:49.930Z,72.37
2019-04-07T03:22:36.884Z,70.97
2019-04-07T03:25:34.334Z,70.27
2019-04-07T03:28:21.460Z,71.90
2019-04-07T03:31:07.051Z,72.90
2019-04-07T03:33:49.727Z,74.83
2019-04-07T03:36:28.955Z,70.63
2019-04-07T03:39:01.978Z,73.40
2019-04-07T03:41:49.201Z,73.63
2019-04-07T03:44:43.454Z,74.77
2019-04-07T03:47:23.410Z,72.40
2019-04-07T03:50:16.501Z,70.67
2019-04-07T03:53:08.700Z,70.83
2019-04-07T03:55:51.264Z,70.30
2019-04-07T03:58:38.343Z,72.87
2019-04-07T04:01:28.467Z,71.07
2019-04-07T04:04:29.913Z,73.87
2019-04-07T04:07:29.951Z,71.47
2019-04-07T04:10:11.211Z,74.67
2019-04-07T04:13:07.044Z,72.83
2019-04-07T04:15:41.551Z,74.27
2019-04-07T04:18:11.934Z,72.87
2019-04-07T04:20:41.293Z,70.63
2019-04-07T04:23:11.248Z,73.10
2019-04-07T04:25:41.057Z,73.90
2019-04-07T04:28:10.145Z,72.60
2019-04-07T04:30:39.740Z,74.77
2019-04-07T04:33:09.036Z,74.67
2019-04-07T04:35:38.848Z,73.30
2019-04-07T04:38:08.231Z,74.60
2019-04-07T04:40:37.523Z,73.50
2019-04-07T04:43:06.592Z,71.83
2019-04-07T04:45:36.326Z,74.90
2019-04-07T04:48:06.570Z,74.20
2019-04-07T04:50:36.241Z,76.30
2019-04-07T04:53:06.112Z,74.80
2019-04-07T04:55:35.380Z,74.20
2019-04-07T04:58:05.310Z,72.80
2019-04-07T05:00:34.477Z,74.97
2019-04-07T05:03:04.571Z,75.20
2019-04-07T05:05:34.476Z,75.10
2019-04-07T05:08:05.390Z,76.07
2019-04-07T05:10:34.917Z,73.33
2019-04-07T05:13:04.527Z,71.57
2019-04-07T05:15:34.206Z,70.63
2019-04-07T05:18:04.215Z,69.30
2019-04-07T05:20:33.361Z,69.30
2019-04-07T05:23:02.638Z,69.07
2019-04-07T05:25:32.713Z,68.43
2019-04-07T05:28:01.834Z,65.57
2019-04-07T05:30:31.325Z,65.53
2019-04-07T05:33:00.967Z,64.93
2019-04-07T05:35:30.601Z,67.27
2019-04-07T05:38:04.020Z,63.07
2019-04-07T05:40:31.086Z,65.07
2019-04-07T05:43:00.760Z,60.60
2019-04-07T05:45:30.438Z,59.80
2019-04-07T05:48:00.093Z,61.87
2019-04-07T05:50:29.666Z,59.97
2019-04-07T05:52:59.269Z,60.03
2019-04-07T05:55:28.288Z,56.53
2019-04-07T05:57:57.557Z,60.93
2019-04-07T06:00:26.753Z,61.10
2019-04-07T06:02:56.043Z,60.87
2019-04-07T06:05:25.481Z,57.27
2019-04-07T06:07:54.467Z,55.63
2019-04-07T06:10:27.614Z,55.37
2019-04-07T06:12:55.314Z,57.30
2019-04-07T06:15:24.719Z,58.00
2019-04-07T06:17:58.762Z,56.37
2019-04-07T06:20:24.785Z,56.97
2019-04-07T06:22:54.637Z,57.40
2019-04-07T06:25:23.794Z,57.77
2019-04-07T06:27:53.240Z,56.57
2019-04-07T06:30:23.310Z,56.77
2019-04-07T06:32:52.803Z,57.87
2019-04-07T06:35:22.508Z,58.10
2019-04-07T06:37:52.025Z,56.87
2019-04-07T06:40:22.202Z,54.93
2019-04-07T06:42:51.546Z,55.27
2019-04-07T06:45:24.500Z,58.93
2019-04-07T06:47:56.319Z,55.00
2019-04-07T06:50:49.306Z,57.53
2019-04-07T06:53:19.683Z,55.70
2019-04-07T06:56:11.463Z,55.90
2019-04-07T06:59:11.930Z,55.30
2019-04-07T07:01:59.390Z,55.07
2019-04-07T07:04:50.684Z,54.60
2019-04-07T07:07:36.410Z,57.10
2019-04-07T07:10:25.929Z,56.33
2019-04-07T07:12:59.623Z,55.63
2019-04-07T07:15:43.854Z,58.00
2019-04-07T07:18:19.967Z,55.87
2019-04-07T07:21:07.236Z,56.90
2019-04-07T07:23:38.712Z,55.07
2019-04-07T07:26:08.177Z,57.57
2019-04-07T07:28:38.027Z,57.57
2019-04-07T07:31:07.818Z,60.53
2019-04-07T07:33:40.405Z,59.63
2019-04-07T07:36:07.948Z,59.70
2019-04-07T07:38:36.998Z,60.77
2019-04-07T07:41:06.367Z,58.43
2019-04-07T07:43:35.820Z,60.80
2019-04-07T07:46:05.590Z,59.03
2019-04-07T07:48:35.620Z,57.47
2019-04-07T07:51:07.152Z,58.37
2019-04-07T07:53:36.130Z,58.43
2019-04-07T07:56:08.348Z,59.33
2019-04-07T07:58:35.929Z,60.03
2019-04-07T08:01:05.451Z,56.37
2019-04-07T08:03:35.115Z,57.17
2019-04-07T08:06:07.392Z,58.93
2019-04-07T08:08:35.278Z,59.67
2019-04-07T08:11:04.600Z,58.73
2019-04-07T08:13:41.225Z,58.37
2019-04-07T08:16:05.080Z,58.63
2019-04-07T08:18:37.170Z,58.03
2019-04-07T08:21:05.547Z,59.57
2019-04-07T08:23:35.178Z,59.03
2019-04-07T08:26:04.966Z,57.87
2019-04-07T08:28:35.863Z,59.63
2019-04-07T08:31:05.540Z,60.80
2019-04-07T08:33:35.522Z,57.70
2019-04-07T08:36:09.663Z,57.00
2019-04-07T08:38:35.420Z,56.20
2019-04-07T08:41:08.167Z,53.77
2019-04-07T08:43:35.224Z,58.17
2019-04-07T08:46:05.081Z,56.30
2019-04-07T08:48:35.147Z,59.47
2019-04-07T08:51:04.729Z,56.33
2019-04-07T08:53:34.204Z,56.73
2019-04-07T08:56:06.372Z,54.00
2019-04-07T08:58:38.478Z,55.50
2019-04-07T09:01:06.411Z,56.70
2019-04-07T09:03:35.870Z,57.13
2019-04-07T09:06:04.927Z,55.77
2019-04-07T09:08:36.120Z,58.67
2019-04-07T09:11:11.209Z,55.37
2019-04-07T09:13:42.040Z,56.00
2019-04-07T09:16:24.658Z,56.23
2019-04-07T09:19:12.385Z,57.30
2019-04-07T09:21:50.470Z,56.60
2019-04-07T09:24:37.041Z,55.27
2019-04-07T09:27:25.778Z,57.37
2019-04-07T09:30:23.566Z,59.30
2019-04-07T09:33:07.107Z,55.87
2019-04-07T09:35:58.951Z,57.10
2019-04-07T09:38:30.352Z,58.87
2019-04-07T09:41:27.475Z,54.90
2019-04-07T09:44:20.858Z,56.40
2019-04-07T09:47:00.987Z,58.77
2019-04-07T09:49:48.169Z,55.40
2019-04-07T09:52:37.668Z,56.13
2019-04-07T09:55:27.902Z,56.57
2019-04-07T09:58:11.981Z,56.20
2019-04-07T10:01:09.495Z,57.60
2019-04-07T10:03:57.597Z,55.33
2019-04-07T10:06:49.532Z,56.47
2019-04-07T10:09:28.969Z,54.40
2019-04-07T10:12:28.234Z,55.47
2019-04-07T10:15:06.685Z,56.00
2019-04-07T10:18:02.062Z,56.20
2019-04-07T10:21:03.179Z,56.93
2019-04-07T10:23:50.881Z,56.03
2019-04-07T10:26:28.458Z,56.80
2019-04-07T10:29:06.981Z,55.17
2019-04-07T10:32:04.706Z,54.80
2019-04-07T10:34:50.975Z,55.93
2019-04-07T10:37:45.503Z,58.07
2019-04-07T10:40:35.738Z,53.97
2019-04-07T10:43:24.013Z,56.07
2019-04-07T10:46:12.450Z,54.50
2019-04-07T10:48:55.963Z,52.93
2019-04-07T10:51:34.384Z,56.67
2019-04-07T10:54:26.715Z,55.97
2019-04-07T10:57:13.801Z,51.47
2019-04-07T10:59:49.220Z,54.57
2019-04-07T11:02:46.726Z,52.20
2019-04-07T11:05:44.785Z,48.83
2019-04-07T11:08:21.317Z,47.97
2019-04-07T11:11:12.200Z,47.03
2019-04-07T11:14:13.423Z,46.23
2019-04-07T11:17:10.280Z,47.63
2019-04-07T11:19:57.549Z,43.13
2019-04-07T11:22:44.430Z,43.20
2019-04-07T11:25:27.362Z,43.53
2019-04-07T11:28:15.470Z,43.33
2019-04-07T11:30:52.108Z,43.37
2019-04-07T11:33:29.642Z,46.63
2019-04-07T11:36:09.436Z,45.90
2019-04-07T11:38:48.395Z,43.13
2019-04-07T11:41:34.685Z,46.03
2019-04-07T11:44:12.929Z,47.60
2019-04-07T11:47:07.216Z,47.60
2019-04-07T11:49:55.111Z,48.60
2019-04-07T11:52:42.072Z,47.90
2019-04-07T11:55:19.264Z,46.30
2019-04-07T11:58:14.375Z,48.43
2019-04-07T12:01:03.522Z,49.27
2019-04-07T12:03:53.801Z,46.87
2019-04-07T12:06:31.661Z,49.97
2019-04-07T12:09:25.885Z,50.10
2019-04-07T12:12:11.551Z,49.70
2019-04-07T12:14:56.637Z,47.57
2019-04-07T12:17:51.291Z,48.37
2019-04-07T12:20:51.890Z,47.50
2019-04-07T12:23:30.653Z,47.00
2019-04-07T12:26:11.414Z,47.00
2019-04-07T12:29:09.105Z,48.30
2019-04-07T12:32:00.727Z,49.90
2019-04-07T12:34:49.818Z,47.07
2019-04-07T12:37:35.038Z,44.30
2019-04-07T12:40:22.877Z,46.27
2019-04-07T12:43:03.506Z,46.77
2019-04-07T12:45:58.094Z,46.50
2019-04-07T12:48:33.021Z,45.37
2019-04-07T12:51:33.927Z,45.77
2019-04-07T12:54:23.317Z,45.60
2019-04-07T12:57:07.431Z,46.23
2019-04-07T12:59:55.138Z,45.00
2019-04-07T13:02:47.503Z,44.63
2019-04-07T13:05:35.954Z,45.50
2019-04-07T13:08:33.758Z,44.10
2019-04-07T13:11:26.552Z,43.80
2019-04-07T13:14:06.181Z,43.90
2019-04-07T13:16:56.454Z,43.90
2019-04-07T13:19:35.297Z,41.10
2019-04-07T13:22:23.535Z,42.70
2019-04-07T13:25:31.163Z,45.13
2019-04-07T13:28:17.315Z,44.20
2019-04-07T13:31:10.160Z,43.87
2019-04-07T13:33:50.142Z,43.30
2019-04-07T13:36:36.266Z,41.67
2019-04-07T13:39:39.243Z,42.87
2019-04-07T13:42:15.277Z,45.20
2019-04-07T13:45:09.545Z,45.23
2019-04-07T13:47:44.758Z,44.27
2019-04-07T13:50:34.477Z,43.27
2019-04-07T13:53:17.486Z,41.90
2019-04-07T13:56:00.710Z,42.30
2019-04-07T13:58:49.298Z,40.10
2019-04-07T14:01:40.759Z,38.27
2019-04-07T14:04:31.664Z,35.80
2019-04-07T14:07:07.871Z,33.87
2019-04-07T14:09:45.228Z,32.90
2019-04-07T14:12:49.031Z,32.03
2019-04-07T14:15:36.014Z,33.30
2019-04-07T14:18:15.489Z,35.60
2019-04-07T14:21:02.972Z,34.40
2019-04-07T14:23:58.174Z,35.93
2019-04-07T14:26:43.784Z,36.53
2019-04-07T14:29:31.622Z,34.40
2019-04-07T14:32:09.926Z,35.30
2019-04-07T14:35:04.269Z,31.77
2019-04-07T14:38:00.302Z,32.70
2019-04-07T14:40:51.233Z,34.90
2019-04-07T14:43:27.065Z,32.90
2019-04-07T14:46:01.630Z,32.67
2019-04-07T14:48:50.258Z,33.63
2019-04-07T14:51:42.664Z,33.83
2019-04-07T14:54:29.847Z,33.53
2019-04-07T14:57:17.486Z,33.50
2019-04-07T14:59:54.538Z,33.40
2019-04-07T15:02:24.746Z,31.73
2019-04-07T15:05:00.967Z,31.50
2019-04-07T15:07:48.389Z,31.90
2019-04-07T15:10:24.470Z,33.23
2019-04-07T15:12:56.857Z,31.37
2019-04-07T15:15:26.803Z,31.53
2019-04-07T15:17:55.967Z,32.30
2019-04-07T15:20:25.820Z,32.27
2019-04-07T15:22:58.398Z,30.87
2019-04-07T15:25:27.597Z,32.17
2019-04-07T15:27:58.880Z,31.67
2019-04-07T15:30:27.521Z,32.87
2019-04-07T15:32:58.585Z,30.47
2019-04-07T15:35:27.682Z,33.57
2019-04-07T15:37:57.081Z,34.40
2019-04-07T15:40:26.179Z,33.47
2019-04-07T15:42:55.681Z,35.27
2019-04-07T15:45:24.895Z,33.57
2019-04-07T15:47:54.213Z,34.07
2019-04-07T15:50:23.241Z,32.60
2019-04-07T15:52:52.311Z,32.93
2019-04-07T15:55:21.773Z,32.80
2019-04-07T15:57:54.283Z,33.07
2019-04-07T16:00:22.194Z,33.83
2019-04-07T16:02:52.705Z,32.63
2019-04-07T16:05:22.674Z,33.00
2019-04-07T16:07:54.306Z,30.40
2019-04-07T16:10:23.932Z,29.57
2019-04-07T16:12:56.722Z,29.17
2019-04-07T16:15:25.062Z,31.03
2019-04-07T16:17:54.367Z,28.33
2019-04-07T16:20:26.296Z,31.27
2019-04-07T16:22:54.288Z,28.53
2019-04-07T16:25:27.556Z,28.33
2019-04-07T16:27:54.564Z,26.43
2019-04-07T16:30:24.737Z,28.07
2019-04-07T16:32:54.736Z,26.50
2019-04-07T16:35:24.571Z,29.00
2019-04-07T16:37:54.249Z,26.63
2019-04-07T16:40:23.863Z,27.60
2019-04-07T16:43:04.615Z,29.10
2019-04-07T16:45:23.676Z,30.60
2019-04-07T16:47:53.089Z,29.50
2019-04-07T16:50:22.923Z,28.63
2019-04-07T16:52:51.982Z,28.30
2019-04-07T16:55:41.597Z,29.60
2019-04-07T16:58:11.701Z,28.77
2019-04-07T17:00:41.777Z,28.93
2019-04-07T17:03:11.302Z,29.30
2019-04-07T17:05:40.788Z,30.73
2019-04-07T17:08:10.037Z,30.13
2019-04-07T17:10:39.236Z,31.80
2019-04-07T17:13:17.101Z,30.17
2019-04-07T17:15:40.949Z,31.93
2019-04-07T17:18:36.794Z,30.00
2019-04-07T17:21:12.585Z,33.27
2019-04-07T17:23:41.054Z,31.47
2019-04-07T17:26:10.215Z,30.53
2019-04-07T17:28:42.080Z,32.00
2019-04-07T17:31:11.638Z,32.30
2019-04-07T17:33:41.503Z,32.70
2019-04-07T17:36:15.880Z,33.50
2019-04-07T17:38:46.665Z,32.83
2019-04-07T17:41:18.241Z,34.50
2019-04-07T17:44:02.478Z,35.90
2019-04-07T17:46:42.661Z,37.80
2019-04-07T17:49:36.433Z,40.60
2019-04-07T17:52:26.076Z,38.13
2019-04-07T17:55:12.707Z,36.90
2019-04-07T17:57:49.544Z,38.90
2019-04-07T18:00:47.529Z,37.73
2019-04-07T18:03:29.154Z,35.37
2019-04-07T18:06:21.638Z,34.83
2019-04-07T18:09:27.866Z,34.60
2019-04-07T18:12:25.905Z,35.20
2019-04-07T18:15:11.667Z,37.07
2019-04-07T18:17:56.189Z,36.10
2019-04-07T18:20:57.123Z,34.80
2019-04-07T18:23:38.470Z,34.90
2019-04-07T18:26:18.676Z,35.53
2019-04-07T18:28:59.725Z,37.93
2019-04-07T18:31:46.538Z,38.47
2019-04-07T18:34:41.754Z,39.17
2019-04-07T18:37:26.080Z,37.87
2019-04-07T18:40:14.481Z,38.93
2019-04-07T18:43:13.910Z,38.33
2019-04-07T18:46:06.145Z,41.37
2019-04-07T18:49:01.183Z,42.50
2019-04-07T18:51:59.554Z,44.87
2019-04-07T18:54:54.274Z,43.27
2019-04-07T18:57:42.631Z,41.90
2019-04-07T19:00:21.466Z,42.00
2019-04-07T19:03:22.667Z,43.50
2019-04-07T19:06:10.546Z,40.20
2019-04-07T19:08:54.401Z,47.90
2019-04-07T19:11:26.536Z,46.23
2019-04-07T19:14:31.683Z,48.77
2019-04-07T19:16:50.927Z,50.90
2019-04-07T19:19:39.736Z,50.20
2019-04-07T19:22:28.094Z,50.27
2019-04-07T19:25:14.283Z,48.97
2019-04-07T19:28:17.829Z,51.10
2019-04-07T19:31:18.049Z,53.87
2019-04-07T19:34:05.134Z,54.97
2019-04-07T19:37:08.354Z,54.27
2019-04-07T19:40:11.199Z,52.20
2019-04-07T19:42:48.211Z,57.00
2019-04-07T19:45:41.315Z,54.40
2019-04-07T19:48:40.541Z,54.77
2019-04-07T19:51:29.384Z,57.40
2019-04-07T19:54:13.553Z,54.90
2019-04-07T19:57:09.221Z,56.23
2019-04-07T19:59:52.743Z,56.23
2019-04-07T20:02:44.586Z,56.67
2019-04-07T20:05:44.537Z,54.40
2019-04-07T20:08:26.930Z,57.77
2019-04-07T20:11:27.723Z,61.33
2019-04-07T20:14:05.083Z,59.40
2019-04-07T20:16:59.885Z,60.20
2019-04-07T20:19:51.338Z,60.73
2019-04-07T20:22:30.736Z,58.80
2019-04-07T20:25:17.511Z,62.83
2019-04-07T20:28:06.617Z,59.53
2019-04-07T20:30:57.745Z,60.50
2019-04-07T20:34:02.211Z,60.30
2019-04-07T20:36:57.698Z,61.37
2019-04-07T20:39:56.729Z,61.33
2019-04-07T20:43:03.030Z,61.43
2019-04-07T20:46:06.683Z,56.40
2019-04-07T20:48:43.205Z,62.57
2019-04-07T20:51:20.885Z,65.20
2019-04-07T20:54:07.592Z,65.80
2019-04-07T20:56:59.481Z,69.00
2019-04-07T20:59:48.343Z,65.10
2019-04-07T21:02:29.328Z,69.37
2019-04-07T21:05:16.842Z,67.00
2019-04-07T21:07:57.836Z,69.50
2019-04-07T21:10:58.588Z,72.00
2019-04-07T21:13:43.051Z,65.97
2019-04-07T21:16:31.310Z,74.73
2019-04-07T21:19:22.860Z,68.77
2019-04-07T21:22:00.109Z,72.53
2019-04-07T21:24:51.725Z,73.23
2019-04-07T21:27:40.874Z,72.37
2019-04-07T21:30:33.263Z,73.27
2019-04-07T21:33:11.147Z,73.90
2019-04-07T21:36:10.378Z,70.40
2019-04-07T21:38:55.159Z,67.40
2019-04-07T21:41:45.127Z,65.87
2019-04-07T21:44:36.157Z,66.23
2019-04-07T21:47:27.688Z,67.03
2019-04-07T21:50:11.951Z,68.73
2019-04-07T21:53:00.088Z,66.57
2019-04-07T21:55:45.777Z,68.27
2019-04-07T21:58:42.591Z,65.10
2019-04-07T22:01:39.611Z,66.33
2019-04-07T22:04:18.883Z,61.20
2019-04-07T22:07:09.527Z,61.07
2019-04-07T22:09:49.445Z,59.20
2019-04-07T22:12:16.999Z,58.93
2019-04-07T22:14:46.404Z,66.73
2019-04-07T22:17:16.453Z,63.67
2019-04-07T22:19:46.669Z,61.60
2019-04-07T22:22:16.551Z,60.97
2019-04-07T22:24:46.346Z,55.77
2019-04-07T22:27:21.255Z,51.50
2019-04-07T22:29:46.930Z,52.37
2019-04-07T22:32:19.287Z,47.53
2019-04-07T22:34:46.798Z,46.10
2019-04-07T22:37:18.651Z,47.00
2019-04-07T22:39:47.065Z,47.20
2019-04-07T22:42:17.154Z,47.27
2019-04-07T22:44:47.381Z,46.20
2019-04-07T22:47:16.846Z,46.37
2019-04-07T22:49:45.912Z,43.93
2019-04-07T22:52:17.581Z,46.30
2019-04-07T22:54:45.681Z,47.13
2019-04-07T22:57:15.458Z,45.43
2019-04-07T22:59:44.542Z,44.67
2019-04-07T23:02:13.771Z,43.57
2019-04-07T23:04:42.725Z,45.30
2019-04-07T23:07:12.133Z,46.43
2019-04-07T23:09:41.219Z,44.10
2019-04-07T23:12:10.628Z,46.33
2019-04-07T23:14:40.119Z,47.40
2019-04-07T23:17:09.959Z,46.70
2019-04-07T23:19:39.907Z,45.40
2019-04-07T23:22:09.529Z,45.20
2019-04-07T23:24:39.027Z,45.63
2019-04-07T23:27:08.241Z,45.50
2019-04-07T23:29:37.408Z,44.33
2019-04-07T23:32:07.389Z,48.00
2019-04-07T23:34:36.567Z,46.20
2019-04-07T23:37:06.065Z,44.47
2019-04-07T23:39:35.606Z,47.20
2019-04-07T23:42:05.493Z,47.93
2019-04-07T23:44:35.246Z,47.80
2019-04-07T23:47:04.775Z,46.77
2019-04-07T23:49:34.254Z,46.70
2019-04-07T23:52:03.389Z,47.67
2019-04-07T23:54:33.106Z,44.10
2019-04-07T23:57:02.262Z,44.87
2019-04-07T23:59:31.293Z,44.83
